Time;durP1;ratioP1;P1;durP2;ratioP2;P2;SDS_P1;SDS_P2;PMS_P1;PMS_P2;Temp;Humidity;BMP_temperature;BMP_pressure;BME280_temperature;BME280_humidity;BME280_pressure;Samples;Min_cycle;Max_cycle;Signal;HPM_P1;HPM_P2
2023/09/09 00:02:15;;;;;;;26.00;15.77;;;;;;;16.73;83.94;100724.22;4206913;28;20246;-74
2023/09/09 00:04:42;;;;;;;30.90;17.83;;;;;;;16.67;84.23;100722.22;4222034;28;20298;-76
2023/09/09 00:07:11;;;;;;;28.03;16.93;;;;;;;16.66;84.39;100726.00;4220296;28;20231;-75
2023/09/09 00:09:40;;;;;;;25.67;16.07;;;;;;;16.59;84.49;100723.97;4221388;28;21553;-73
2023/09/09 00:12:07;;;;;;;26.67;17.13;;;;;;;16.59;84.73;100723.13;4216817;28;20262;-75
2023/09/09 00:14:34;;;;;;;31.07;18.27;;;;;;;16.58;84.83;100727.75;4227727;28;20439;-76
2023/09/09 00:17:01;;;;;;;33.20;18.93;;;;;;;16.61;84.90;100732.00;4220368;28;20235;-76
2023/09/09 00:19:28;;;;;;;31.93;18.77;;;;;;;16.58;84.78;100729.59;4217751;28;21118;-75
2023/09/09 00:21:55;;;;;;;32.13;18.70;;;;;;;16.55;85.18;100722.63;4218042;28;20333;-72
2023/09/09 00:24:21;;;;;;;27.40;18.00;;;;;;;16.53;85.59;100726.56;4228642;28;20246;-73
2023/09/09 00:26:48;;;;;;;30.27;19.50;;;;;;;16.54;85.64;100720.06;4227111;28;20231;-74
2023/09/09 00:29:15;;;;;;;27.20;17.37;;;;;;;16.56;85.68;100718.88;4210600;28;20278;-72
2023/09/09 00:31:41;;;;;;;25.13;17.30;;;;;;;16.55;85.71;100719.06;4219781;28;20901;-73
2023/09/09 00:34:08;;;;;;;34.93;18.73;;;;;;;16.52;85.86;100717.53;4215448;28;21242;-74
2023/09/09 00:36:35;;;;;;;26.23;18.17;;;;;;;16.48;85.95;100719.78;4227635;28;21930;-77
2023/09/09 00:39:04;;;;;;;28.80;17.57;;;;;;;16.50;86.04;100719.59;4220845;28;20275;-75
2023/09/09 00:41:30;;;;;;;28.37;17.97;;;;;;;16.44;86.13;100720.31;4235239;28;20236;-74
2023/09/09 00:43:57;;;;;;;26.63;18.03;;;;;;;16.44;86.34;100717.56;4216388;28;22007;-73
2023/09/09 00:46:24;;;;;;;26.40;16.43;;;;;;;16.42;86.25;100714.16;4262433;28;20585;-72
2023/09/09 00:48:51;;;;;;;26.40;16.87;;;;;;;16.41;86.58;100715.19;4218606;28;20319;-72
2023/09/09 00:51:18;;;;;;;29.03;17.30;;;;;;;16.39;86.78;100718.09;4214540;28;20312;-74
2023/09/09 00:53:45;;;;;;;28.57;18.67;;;;;;;16.36;87.02;100714.88;4218634;28;20248;-73
2023/09/09 00:56:11;;;;;;;28.47;18.43;;;;;;;16.44;87.01;100717.56;4219981;28;20239;-72
2023/09/09 00:58:38;;;;;;;36.13;18.93;;;;;;;16.48;86.82;100717.03;4216738;28;20240;-74
2023/09/09 01:01:05;;;;;;;30.50;19.23;;;;;;;16.38;87.46;100719.13;4208347;28;20232;-73
2023/09/09 01:03:32;;;;;;;32.43;19.73;;;;;;;16.44;87.07;100714.84;4220884;28;20457;-76
2023/09/09 01:06:00;;;;;;;30.00;18.73;;;;;;;16.40;87.42;100711.63;4223235;28;20350;-74
2023/09/09 01:08:28;;;;;;;33.50;20.97;;;;;;;16.38;87.59;100712.84;4212660;28;20239;-73
2023/09/09 01:10:56;;;;;;;30.70;19.63;;;;;;;16.37;87.70;100717.44;4214767;28;23938;-74
2023/09/09 01:13:23;;;;;;;29.87;18.47;;;;;;;16.37;87.58;100714.69;4221700;28;20255;-75
2023/09/09 01:15:50;;;;;;;26.23;18.07;;;;;;;16.38;87.55;100716.41;4225992;28;20231;-74
2023/09/09 01:18:17;;;;;;;28.83;18.60;;;;;;;16.36;87.38;100717.63;4218015;28;20595;-73
2023/09/09 01:21:08;;;;;;;32.00;18.53;;;;;;;16.37;87.35;100713.84;4234828;28;20274;-73
2023/09/09 01:23:35;;;;;;;31.17;19.10;;;;;;;16.39;86.92;100715.38;4237869;28;20306;-74
2023/09/09 01:26:03;;;;;;;30.57;19.00;;;;;;;16.30;87.51;100717.31;4218257;28;21144;-73
2023/09/09 01:28:30;;;;;;;27.83;18.10;;;;;;;16.27;87.44;100714.94;4209704;28;21178;-77
2023/09/09 01:30:58;;;;;;;26.83;18.67;;;;;;;16.24;87.50;100714.44;4225025;28;20228;-75
2023/09/09 01:33:24;;;;;;;30.23;19.47;;;;;;;16.34;87.50;100712.34;4236250;28;20232;-72
2023/09/09 01:35:51;;;;;;;31.53;19.27;;;;;;;16.20;88.14;100713.94;4213440;28;20236;-73
2023/09/09 01:38:18;;;;;;;29.63;18.37;;;;;;;16.13;88.07;100705.59;4215762;28;20236;-76
2023/09/09 01:40:44;;;;;;;37.33;20.60;;;;;;;16.15;87.98;100705.44;4231140;28;20232;-73
2023/09/09 01:43:11;;;;;;;37.33;19.20;;;;;;;16.07;88.32;100706.31;4221701;28;20627;-73
2023/09/09 01:45:37;;;;;;;34.47;20.87;;;;;;;16.07;88.58;100710.94;4214796;28;20434;-76
2023/09/09 01:48:05;;;;;;;34.93;19.73;;;;;;;16.08;88.60;100707.16;4203343;28;20482;-75
2023/09/09 01:50:32;;;;;;;34.30;19.57;;;;;;;16.01;88.91;100709.75;4222156;28;20285;-72
2023/09/09 01:53:02;;;;;;;30.87;19.40;;;;;;;16.00;88.87;100711.63;4217136;28;20245;-66
2023/09/09 01:55:28;;;;;;;31.70;18.40;;;;;;;15.99;88.92;100707.19;4244387;28;20491;-64
2023/09/09 01:57:55;;;;;;;31.37;20.33;;;;;;;15.94;89.62;100709.59;4211944;28;20227;-68
2023/09/09 02:00:21;;;;;;;33.70;20.20;;;;;;;15.91;89.45;100707.22;4212902;28;21140;-66
2023/09/09 02:02:48;;;;;;;38.10;22.80;;;;;;;15.89;89.71;100714.72;4229632;28;21351;-67
2023/09/09 02:05:15;;;;;;;38.27;20.43;;;;;;;15.83;89.93;100721.75;4223566;28;20245;-66
2023/09/09 02:07:41;;;;;;;39.13;20.53;;;;;;;15.85;89.77;100724.31;4220565;28;20459;-65
2023/09/09 02:10:08;;;;;;;28.57;18.93;;;;;;;15.88;89.50;100723.09;4219613;28;20247;-67
2023/09/09 02:12:39;;;;;;;37.10;21.80;;;;;;;15.77;90.48;100732.50;4226234;28;20240;-65
2023/09/09 02:15:09;;;;;;;44.80;20.83;;;;;;;15.74;90.62;100733.69;4201622;28;20581;-65
2023/09/09 02:17:36;;;;;;;32.47;19.77;;;;;;;15.78;90.48;100726.84;4213591;28;20236;-65
2023/09/09 02:20:07;;;;;;;33.80;19.57;;;;;;;15.81;90.06;100728.38;4219917;28;20285;-65
2023/09/09 02:22:34;;;;;;;32.70;21.07;;;;;;;15.76;90.32;100730.78;4210336;28;20638;-66
2023/09/09 02:25:02;;;;;;;31.73;19.13;;;;;;;15.71;90.54;100720.38;4216670;28;20251;-65
2023/09/09 02:27:29;;;;;;;31.47;20.47;;;;;;;15.67;90.61;100724.50;4210589;28;20235;-66
2023/09/09 02:29:55;;;;;;;31.73;20.20;;;;;;;15.67;90.51;100727.22;4217263;28;22267;-67
2023/09/09 02:32:22;;;;;;;32.40;18.97;;;;;;;15.69;90.36;100730.63;4211915;28;20765;-66
2023/09/09 02:34:49;;;;;;;33.30;20.63;;;;;;;15.60;90.99;100729.78;4212772;28;20244;-66
2023/09/09 02:37:18;;;;;;;40.70;22.03;;;;;;;15.49;91.39;100720.09;4209028;28;23660;-66
2023/09/09 02:39:49;;;;;;;37.03;21.43;;;;;;;15.51;91.30;100728.97;4220406;28;20969;-66
2023/09/09 02:42:19;;;;;;;35.80;21.13;;;;;;;15.62;90.70;100729.59;4215510;28;20401;-65
2023/09/09 02:44:49;;;;;;;32.57;19.27;;;;;;;15.64;90.65;100730.28;4219773;28;20248;-65
2023/09/09 02:47:16;;;;;;;34.43;20.33;;;;;;;15.58;90.84;100723.66;4211282;28;20232;-64
2023/09/09 02:49:43;;;;;;;40.73;22.07;;;;;;;15.51;91.25;100717.19;4217330;28;20233;-66
2023/09/09 02:52:11;;;;;;;33.97;21.13;;;;;;;15.54;91.22;100722.31;4221642;28;21861;-66
2023/09/09 02:54:40;;;;;;;36.27;20.97;;;;;;;15.58;90.98;100729.09;4218041;28;20236;-65
2023/09/09 02:57:07;;;;;;;37.27;22.43;;;;;;;15.58;91.00;100731.00;4206892;28;22810;-65
2023/09/09 02:59:36;;;;;;;34.10;20.67;;;;;;;15.60;90.85;100721.59;4228612;28;21847;-65
2023/09/09 03:02:02;;;;;;;36.40;21.47;;;;;;;15.52;91.19;100733.38;4215718;28;20282;-64
2023/09/09 03:04:29;;;;;;;41.07;23.03;;;;;;;15.46;91.54;100727.78;4214730;28;23646;-68
2023/09/09 03:06:56;;;;;;;33.30;20.77;;;;;;;15.37;91.88;100726.91;4217895;28;20609;-65
2023/09/09 03:09:22;;;;;;;32.00;19.20;;;;;;;15.42;91.78;100734.56;4239597;28;21034;-65
2023/09/09 03:11:49;;;;;;;33.03;22.13;;;;;;;15.39;91.75;100722.13;4214076;28;23550;-67
2023/09/09 03:14:16;;;;;;;44.37;22.47;;;;;;;15.48;91.28;100736.66;4211236;28;22107;-66
2023/09/09 03:16:45;;;;;;;35.67;21.67;;;;;;;15.40;91.40;100733.91;4217400;28;22807;-66
2023/09/09 03:19:12;;;;;;;38.30;23.90;;;;;;;15.33;92.17;100733.75;4228590;28;20303;-66
2023/09/09 03:21:38;;;;;;;37.90;22.17;;;;;;;15.29;92.20;100726.94;4222573;28;20297;-65
2023/09/09 03:24:05;;;;;;;37.70;21.97;;;;;;;15.26;92.06;100725.38;4212420;28;20566;-65
2023/09/09 03:26:32;;;;;;;34.20;22.13;;;;;;;15.30;92.03;100726.75;4224302;28;20326;-66
2023/09/09 03:28:59;;;;;;;44.73;23.23;;;;;;;15.27;91.72;100729.81;4214629;28;20248;-68
2023/09/09 03:31:26;;;;;;;36.17;23.33;;;;;;;15.29;92.36;100721.47;4210942;28;20234;-65
2023/09/09 03:33:53;;;;;;;34.67;20.80;;;;;;;15.28;92.32;100730.69;4218663;28;21633;-65
2023/09/09 03:36:21;;;;;;;38.43;24.83;;;;;;;15.23;92.52;100725.75;4217797;28;20244;-66
2023/09/09 03:38:47;;;;;;;39.17;23.90;;;;;;;15.20;92.77;100723.34;4236279;28;21101;-64
2023/09/09 03:41:14;;;;;;;41.47;24.37;;;;;;;15.28;92.62;100723.34;4218371;28;22287;-66
2023/09/09 03:43:41;;;;;;;36.07;22.97;;;;;;;15.27;92.35;100718.91;4221042;28;21066;-65
2023/09/09 03:46:08;;;;;;;46.30;26.00;;;;;;;15.19;92.86;100714.31;4219781;28;20247;-66
2023/09/09 03:48:35;;;;;;;36.37;23.47;;;;;;;15.19;92.90;100722.50;4229794;28;20410;-65
2023/09/09 03:51:02;;;;;;;39.07;24.80;;;;;;;15.20;92.71;100726.94;4225606;28;20462;-64
2023/09/09 03:53:29;;;;;;;35.03;23.23;;;;;;;15.27;92.65;100721.63;4212370;28;20247;-65
2023/09/09 03:55:58;;;;;;;39.43;25.70;;;;;;;15.26;92.65;100717.19;4215097;28;20286;-65
2023/09/09 03:58:25;;;;;;;42.80;25.77;;;;;;;15.21;92.72;100708.69;4219446;28;20239;-64
2023/09/09 04:01:21;;;;;;;40.53;24.93;;;;;;;15.27;92.75;100712.63;4221558;28;20243;-65
2023/09/09 04:03:48;;;;;;;37.47;23.87;;;;;;;15.29;92.79;100700.50;4225476;28;20343;-65
2023/09/09 04:06:17;;;;;;;40.90;24.13;;;;;;;15.28;92.82;100711.59;4214695;28;20640;-64
2023/09/09 04:08:45;;;;;;;44.10;24.20;;;;;;;15.28;92.61;100703.41;4224998;28;20545;-66
2023/09/09 04:11:11;;;;;;;41.30;25.93;;;;;;;15.37;92.48;100705.94;4212437;28;22171;-65
2023/09/09 04:13:40;;;;;;;40.47;24.40;;;;;;;15.32;92.50;100711.09;4226255;28;20936;-64
2023/09/09 04:16:07;;;;;;;41.30;26.07;;;;;;;15.45;92.11;100715.16;4216050;28;20525;-65
2023/09/09 04:18:34;;;;;;;42.03;24.43;;;;;;;15.39;92.71;100724.03;4220902;28;20276;-67
2023/09/09 04:21:12;;;;;;;39.63;24.60;;;;;;;15.36;92.61;100720.63;4254510;28;20288;-65
2023/09/09 04:23:39;;;;;;;40.13;25.13;;;;;;;15.36;92.58;100720.63;4244944;28;25708;-65
2023/09/09 04:26:07;;;;;;;42.93;27.90;;;;;;;15.36;92.70;100717.88;4250638;28;20232;-66
2023/09/09 04:28:33;;;;;;;40.27;25.77;;;;;;;15.39;92.74;100715.84;4244881;28;20278;-65
2023/09/09 04:31:02;;;;;;;45.47;27.03;;;;;;;15.56;91.81;100722.97;4247212;28;22834;-63
2023/09/09 04:33:29;;;;;;;44.63;28.23;;;;;;;15.54;91.92;100714.13;4227973;28;22888;-65
2023/09/09 04:35:56;;;;;;;44.80;26.43;;;;;;;15.55;92.09;100721.28;4229130;28;21583;-65
2023/09/09 04:38:23;;;;;;;41.23;26.13;;;;;;;15.56;91.80;100716.66;4241852;28;20275;-68
2023/09/09 04:40:50;;;;;;;38.03;26.27;;;;;;;15.51;92.22;100723.50;4230847;28;20236;-65
2023/09/09 04:43:18;;;;;;;36.13;24.90;;;;;;;15.48;92.29;100718.38;4221416;28;25208;-65
2023/09/09 04:45:45;;;;;;;42.73;26.13;;;;;;;15.58;92.00;100725.53;4263462;28;20310;-65
2023/09/09 04:48:12;;;;;;;44.37;27.13;;;;;;;15.53;91.69;100724.16;4274074;28;20594;-66
2023/09/09 04:50:39;;;;;;;41.30;25.00;;;;;;;15.55;92.08;100728.59;4247441;28;20243;-66
2023/09/09 04:53:07;;;;;;;37.03;25.53;;;;;;;15.58;91.99;100736.44;4215153;28;20236;-65
2023/09/09 04:55:34;;;;;;;47.60;28.57;;;;;;;15.53;91.97;100735.06;4260347;28;20328;-65
2023/09/09 04:58:01;;;;;;;40.17;25.73;;;;;;;15.59;91.84;100741.72;4233112;28;20228;-65
2023/09/09 05:00:27;;;;;;;38.17;24.97;;;;;;;15.67;91.74;100743.59;4229495;28;25679;-65
2023/09/09 05:02:54;;;;;;;47.37;28.10;;;;;;;15.60;91.49;100734.38;4223131;28;24749;-64
2023/09/09 05:05:24;;;;;;;39.40;26.27;;;;;;;15.61;92.01;100741.53;4251633;28;20314;-65
2023/09/09 05:07:51;;;;;;;42.03;25.97;;;;;;;15.79;91.13;100747.66;4228371;28;20622;-66
2023/09/09 05:10:19;;;;;;;34.33;23.17;;;;;;;15.92;91.12;100741.69;4226273;28;22415;-64
2023/09/09 05:12:48;;;;;;;34.47;25.03;;;;;;;15.97;90.72;100736.56;4242922;28;20349;-65
2023/09/09 05:15:16;;;;;;;36.33;24.73;;;;;;;16.07;90.43;100741.81;4238201;28;20285;-65
2023/09/09 05:17:43;;;;;;;46.20;25.17;;;;;;;16.17;90.07;100741.59;4231183;28;20756;-66
2023/09/09 05:20:10;;;;;;;39.60;26.53;;;;;;;16.37;89.32;100744.75;4212310;28;20232;-67
2023/09/09 05:22:37;;;;;;;41.10;25.57;;;;;;;16.46;88.64;100735.50;4225375;28;22007;-66
2023/09/09 05:25:04;;;;;;;44.73;28.13;;;;;;;16.60;87.94;100741.22;4220148;28;20236;-65
2023/09/09 05:27:30;;;;;;;48.57;29.90;;;;;;;16.50;87.80;100744.19;4220407;28;20228;-65
2023/09/09 05:29:57;;;;;;;42.47;27.37;;;;;;;16.52;87.88;100744.00;4216011;28;22107;-65
2023/09/09 05:32:24;;;;;;;47.10;30.10;;;;;;;16.43;88.21;100751.41;4220471;28;21001;-63
2023/09/09 05:34:51;;;;;;;45.67;29.00;;;;;;;16.54;87.97;100747.41;4230671;28;20404;-64
2023/09/09 05:37:18;;;;;;;44.70;29.70;;;;;;;16.72;86.87;100744.41;4221354;28;21428;-65
2023/09/09 05:39:44;;;;;;;43.80;28.53;;;;;;;16.68;87.15;100756.72;4217868;28;20683;-65
2023/09/09 05:42:11;;;;;;;44.07;25.27;;;;;;;16.71;87.19;100738.09;4208126;28;20232;-65
2023/09/09 05:44:37;;;;;;;39.70;26.57;;;;;;;16.64;86.88;100748.03;4221096;28;21719;-66
2023/09/09 05:47:08;;;;;;;41.70;27.13;;;;;;;16.52;87.56;100744.00;4213907;28;21191;-66
2023/09/09 05:49:36;;;;;;;43.13;27.37;;;;;;;16.42;88.37;100744.22;4221795;28;20236;-65
2023/09/09 05:52:07;;;;;;;45.43;27.97;;;;;;;16.59;87.64;100747.72;4217693;28;20231;-65
2023/09/09 05:54:33;;;;;;;40.67;26.70;;;;;;;16.76;86.67;100749.31;4234426;28;20322;-65
2023/09/09 05:57:00;;;;;;;40.03;26.00;;;;;;;16.99;85.69;100748.53;4225659;28;20395;-64
2023/09/09 05:59:27;;;;;;;40.27;26.63;;;;;;;17.15;84.90;100750.28;4221955;28;20230;-65
2023/09/09 06:01:54;;;;;;;39.17;25.30;;;;;;;17.30;84.01;100757.66;4230749;28;20761;-66
2023/09/09 06:04:21;;;;;;;42.87;26.67;;;;;;;17.25;84.55;100753.63;4231095;28;20520;-65
2023/09/09 06:06:48;;;;;;;38.60;25.00;;;;;;;17.58;83.21;100763.41;4224555;28;21213;-65
2023/09/09 06:09:15;;;;;;;39.57;25.07;;;;;;;17.78;81.88;100747.31;4212474;28;20394;-65
2023/09/09 06:11:42;;;;;;;36.23;23.13;;;;;;;17.82;81.16;100753.25;4203094;28;21213;-66
2023/09/09 06:14:09;;;;;;;39.43;23.70;;;;;;;17.98;81.08;100757.72;4217679;28;20238;-65
2023/09/09 06:16:35;;;;;;;40.80;23.87;;;;;;;18.03;80.61;100764.34;4217001;28;20235;-66
2023/09/09 06:19:02;;;;;;;37.03;21.97;;;;;;;18.11;80.19;100757.06;4221369;28;20231;-67
2023/09/09 06:21:28;;;;;;;38.50;22.33;;;;;;;18.39;78.93;100772.84;4226211;28;21773;-66
2023/09/09 06:23:55;;;;;;;39.37;23.97;;;;;;;18.34;79.28;100767.94;4231774;28;20241;-66
2023/09/09 06:26:22;;;;;;;38.00;23.60;;;;;;;18.40;78.95;100769.91;4231870;28;20313;-66
2023/09/09 06:28:49;;;;;;;44.07;23.40;;;;;;;18.51;78.27;100766.66;4208333;28;20234;-67
2023/09/09 06:31:15;;;;;;;50.23;23.33;;;;;;;18.74;77.29;100773.06;4211299;28;21172;-67
2023/09/09 06:33:42;;;;;;;48.03;24.03;;;;;;;18.91;76.85;100777.28;4246556;28;20485;-65
2023/09/09 06:36:10;;;;;;;49.70;24.27;;;;;;;19.05;76.09;100786.50;4241523;28;20697;-67
2023/09/09 06:38:37;;;;;;;46.63;22.53;;;;;;;19.34;74.52;100772.88;4229372;28;20243;-68
2023/09/09 06:41:04;;;;;;;46.20;24.47;;;;;;;19.24;74.90;100779.53;4243356;28;22164;-67
2023/09/09 06:43:31;;;;;;;60.47;23.67;;;;;;;19.55;74.44;100775.56;4249569;28;20236;-67
2023/09/09 06:45:59;;;;;;;57.47;23.57;;;;;;;19.66;73.69;100781.59;4260269;28;20239;-66
2023/09/09 06:48:26;;;;;;;50.30;23.17;;;;;;;19.97;72.00;100777.63;4270887;28;20710;-65
2023/09/09 06:50:53;;;;;;;55.80;22.63;;;;;;;20.13;71.52;100776.44;4256273;28;20672;-66
2023/09/09 06:53:24;;;;;;;59.10;23.17;;;;;;;20.42;70.57;100780.84;4299574;28;20232;-65
2023/09/09 06:55:51;;;;;;;49.50;21.37;;;;;;;20.80;68.87;100782.25;4268359;28;20242;-68
2023/09/09 06:58:18;;;;;;;63.57;22.10;;;;;;;21.01;68.49;100773.03;4241636;28;20308;-66
2023/09/09 07:00:52;;;;;;;53.37;21.13;;;;;;;21.04;68.79;100783.59;4273037;28;20241;-64
2023/09/09 07:03:21;;;;;;;55.87;21.63;;;;;;;22.00;65.94;100782.38;4241551;28;20647;-66
2023/09/09 07:05:49;;;;;;;44.80;20.70;;;;;;;23.44;60.21;100788.75;4259238;28;23414;-66
2023/09/09 07:08:16;;;;;;;50.37;19.27;;;;;;;25.04;56.38;100779.81;4247428;28;20239;-67
2023/09/09 07:10:52;;;;;;;40.47;17.63;;;;;;;26.22;51.42;100784.69;4223596;28;20251;-66
2023/09/09 07:13:24;;;;;;;40.60;16.33;;;;;;;26.35;49.30;100775.28;4251470;28;21508;-68
2023/09/09 07:15:53;;;;;;;29.30;15.00;;;;;;;26.74;48.88;100780.22;4295906;28;20245;-66
2023/09/09 07:18:25;;;;;;;30.20;14.93;;;;;;;27.31;47.35;100779.38;4282190;28;20880;-65
2023/09/09 07:20:52;;;;;;;29.03;13.53;;;;;;;27.92;45.71;100767.56;4372990;28;20348;-66
2023/09/09 07:23:19;;;;;;;27.20;13.47;;;;;;;28.69;43.61;100766.94;4347598;28;20303;-66
2023/09/09 07:25:47;;;;;;;27.60;11.47;;;;;;;29.15;42.55;100774.97;4272786;28;20601;-65
2023/09/09 07:28:14;;;;;;;22.27;12.00;;;;;;;28.75;42.68;100763.97;4226187;28;21700;-69
2023/09/09 07:30:41;;;;;;;29.90;13.73;;;;;;;28.39;43.24;100769.06;4244109;28;20531;-66
2023/09/09 07:33:08;;;;;;;29.77;12.38;;;;;;;28.99;42.42;100755.28;4244796;28;20270;-70
2023/09/09 07:35:38;;;;;;;33.33;14.73;;;;;;;29.20;41.44;100764.69;4262562;28;21734;-68
2023/09/09 07:38:06;;;;;;;31.93;14.87;;;;;;;29.55;40.82;100765.31;4243699;28;21324;-68
2023/09/09 07:40:33;;;;;;;30.23;15.82;;;;;;;27.96;43.81;100757.59;4230091;28;20239;-68
2023/09/09 07:43:01;;;;;;;33.30;16.35;;;;;;;27.24;46.17;100762.00;4261328;28;21678;-67
2023/09/09 07:45:28;;;;;;;33.93;15.80;;;;;;;26.54;47.25;100767.63;4242158;28;20891;-69
2023/09/09 07:47:56;;;;;;;32.45;14.57;;;;;;;27.90;44.02;100761.41;4263974;28;20294;-69
2023/09/09 07:50:22;;;;;;;27.43;13.83;;;;;;;29.25;40.96;100758.34;4258678;28;20236;-65
2023/09/09 07:52:51;;;;;;;28.60;13.17;;;;;;;30.14;39.33;100760.69;4253660;28;20306;-66
2023/09/09 07:55:18;;;;;;;20.55;11.85;;;;;;;30.75;38.04;100759.28;4273542;28;20591;-70
2023/09/09 07:57:46;;;;;;;22.23;11.90;;;;;;;31.38;36.56;100761.09;4275809;28;20233;-68
2023/09/09 08:00:13;;;;;;;29.15;12.40;;;;;;;31.23;37.04;100762.75;4255147;28;20246;-69
2023/09/09 08:02:40;;;;;;;29.73;14.10;;;;;;;32.02;34.69;100759.63;4279399;28;20600;-71
2023/09/09 08:05:08;;;;;;;25.90;13.15;;;;;;;30.61;37.48;100759.81;4273287;28;20311;-73
2023/09/09 08:07:35;;;;;;;35.97;13.70;;;;;;;29.77;40.52;100767.97;4253896;28;20222;-70
2023/09/09 08:10:02;;;;;;;27.90;12.70;;;;;;;29.77;40.28;100758.78;4249309;28;21689;-68
2023/09/09 08:12:29;;;;;;;37.47;13.48;;;;;;;30.20;39.65;100770.78;4273840;28;20637;-70
2023/09/09 08:15:07;;;;;;;20.40;11.20;;;;;;;30.34;39.83;100763.56;4289146;28;20239;-72
2023/09/09 08:17:34;;;;;;;30.25;13.57;;;;;;;29.72;40.05;100762.34;4264008;28;20878;-76
2023/09/09 08:20:06;;;;;;;25.98;11.52;;;;;;;29.18;41.99;100764.13;4257026;28;20582;-72
2023/09/09 08:22:36;;;;;;;26.70;11.88;;;;;;;28.52;42.02;100761.41;4256848;28;20248;-70
2023/09/09 08:25:04;;;;;;;20.25;9.85;;;;;;;28.87;42.57;100762.97;4251754;28;20232;-71
2023/09/09 08:27:31;;;;;;;24.17;11.15;;;;;;;27.21;44.82;100762.50;4249088;28;22041;-71
2023/09/09 08:29:57;;;;;;;21.80;10.98;;;;;;;27.73;43.85;100753.09;4251302;28;21435;-71
2023/09/09 08:32:24;;;;;;;17.38;9.25;;;;;;;28.17;42.20;100755.16;4279970;28;20301;-72
2023/09/09 08:34:52;;;;;;;23.45;9.80;;;;;;;28.01;43.23;100759.63;4248593;28;20321;-72
2023/09/09 08:37:19;;;;;;;21.23;9.57;;;;;;;27.16;45.09;100763.25;4232804;28;20434;-73
2023/09/09 08:39:53;;;;;;;19.85;9.98;;;;;;;28.16;42.67;100759.03;4270370;28;20339;-71
2023/09/09 08:42:31;;;;;;;14.48;7.88;;;;;;;28.60;42.31;100753.47;4245190;28;20246;-53
2023/09/09 08:45:09;;;;;;;15.17;7.87;;;;;;;28.96;40.96;100760.56;4254188;28;22117;-73
2023/09/09 08:47:38;;;;;;;11.45;7.40;;;;;;;28.81;41.19;100764.03;4259224;28;21085;-72
2023/09/09 08:50:06;;;;;;;15.90;8.55;;;;;;;27.61;42.91;100769.88;4248393;28;22721;-71
2023/09/09 08:52:33;;;;;;;13.60;6.90;;;;;;;27.55;41.64;100770.03;4269203;28;20258;-70
2023/09/09 08:55:01;;;;;;;17.88;7.65;;;;;;;27.65;42.11;100768.25;4265093;28;21215;-71
2023/09/09 08:57:29;;;;;;;17.65;6.75;;;;;;;27.90;42.07;100758.63;4247762;28;20281;-73
2023/09/09 09:00:02;;;;;;;17.10;6.93;;;;;;;28.47;40.97;100770.56;4243723;28;20267;-70
2023/09/09 09:02:29;;;;;;;15.63;7.50;;;;;;;28.37;41.14;100768.47;4252941;28;22809;-71
2023/09/09 09:04:56;;;;;;;15.77;6.75;;;;;;;28.91;39.92;100759.41;4250537;28;20232;-73
2023/09/09 09:07:27;;;;;;;14.75;6.65;;;;;;;28.64;40.38;100767.72;4238759;28;21535;-72
2023/09/09 09:09:57;;;;;;;14.98;7.25;;;;;;;27.39;42.75;100768.91;4247056;28;20234;-72
2023/09/09 09:12:25;;;;;;;12.23;6.65;;;;;;;27.11;43.46;100777.06;4240483;28;21233;-70
2023/09/09 09:14:52;;;;;;;14.48;7.47;;;;;;;27.29;43.88;100770.41;4250092;28;20819;-72
2023/09/09 09:17:18;;;;;;;14.47;7.20;;;;;;;27.34;44.42;100775.22;4218108;28;21868;-71
2023/09/09 09:19:46;;;;;;;14.30;6.25;;;;;;;27.68;43.68;100769.72;4262844;28;20239;-70
2023/09/09 09:22:13;;;;;;;13.45;6.40;;;;;;;28.72;40.85;100766.41;4249782;28;20241;-75
2023/09/09 09:24:42;;;;;;;24.27;8.32;;;;;;;28.17;42.60;100774.66;4261831;28;20396;-76
2023/09/09 09:27:15;;;;;;;12.05;6.43;;;;;;;27.09;42.31;100768.13;4223178;28;22832;-76
2023/09/09 09:29:45;;;;;;;10.32;5.53;;;;;;;26.94;43.02;100763.13;4265721;28;20347;-75
2023/09/09 09:32:12;;;;;;;9.32;5.93;;;;;;;26.92;43.61;100765.31;4238384;28;20230;-74
2023/09/09 09:34:39;;;;;;;13.40;5.88;;;;;;;25.93;45.97;100761.53;4257873;28;21352;-77
2023/09/09 09:37:09;;;;;;;10.43;5.40;;;;;;;26.84;44.36;100758.22;4233438;28;20232;-74
2023/09/09 09:39:37;;;;;;;15.57;5.60;;;;;;;27.65;42.29;100762.69;4233049;28;20231;-74
2023/09/09 09:42:04;;;;;;;13.45;5.40;;;;;;;27.83;42.87;100757.97;4238045;28;20889;-76
2023/09/09 09:44:31;;;;;;;11.65;5.65;;;;;;;27.90;43.90;100757.81;4259244;28;22325;-75
2023/09/09 09:47:03;;;;;;;11.25;6.05;;;;;;;27.52;43.66;100754.72;4254401;28;20275;-75
2023/09/09 09:49:37;;;;;;;11.13;6.18;;;;;;;27.23;43.82;100759.47;4256478;28;26856;-75
2023/09/09 09:52:05;;;;;;;14.90;5.75;;;;;;;27.15;44.92;100757.94;4249005;28;20315;-75
2023/09/09 09:54:33;;;;;;;9.98;4.93;;;;;;;27.24;44.12;100762.00;4219918;28;21734;-74
2023/09/09 09:57:03;;;;;;;7.72;4.82;;;;;;;27.34;43.69;100767.72;4230983;28;20250;-75
2023/09/09 09:59:34;;;;;;;15.32;5.10;;;;;;;26.92;44.20;100768.09;4276930;28;20306;-76
2023/09/09 10:02:03;;;;;;;13.50;5.22;;;;;;;26.80;44.28;100767.31;4275894;28;20303;-76
2023/09/09 10:04:37;;;;;;;12.10;5.32;;;;;;;26.64;45.52;100763.34;4241964;28;20227;-73
2023/09/09 10:07:05;;;;;;;11.00;5.43;;;;;;;26.70;44.16;100756.81;4239233;28;20242;-74
2023/09/09 10:09:50;;;;;;;18.83;5.32;;;;;;;26.33;45.71;100760.78;4237163;28;21652;-76
2023/09/09 10:12:56;;;;;;;12.13;4.78;;;;;;;26.83;45.68;100764.88;4224380;28;21230;-73
2023/09/09 10:15:25;;;;;;;14.77;5.80;;;;;;;27.52;44.33;100761.13;4263399;28;20298;-76
2023/09/09 10:17:53;;;;;;;13.15;5.80;;;;;;;26.81;45.69;100750.38;4311574;28;20240;-76
2023/09/09 10:20:24;;;;;;;13.13;5.25;;;;;;;27.09;45.04;100754.22;4261950;28;20401;-75
2023/09/09 10:22:55;;;;;;;12.80;5.35;;;;;;;27.08;46.58;100755.31;4239674;28;20811;-75
2023/09/09 10:25:22;;;;;;;12.20;5.68;;;;;;;27.58;43.84;100761.19;4284903;28;20334;-74
2023/09/09 10:27:50;;;;;;;8.40;4.93;;;;;;;27.40;44.40;100763.09;4258264;28;21726;-74
2023/09/09 10:30:18;;;;;;;8.82;4.78;;;;;;;28.06;43.11;100756.09;4251049;28;20251;-72
2023/09/09 10:32:46;;;;;;;8.30;5.30;;;;;;;27.46;43.65;100758.50;4265618;28;20364;-73
2023/09/09 10:35:14;;;;;;;11.90;5.13;;;;;;;26.92;44.10;100759.75;4257215;28;26260;-73
2023/09/09 10:37:46;;;;;;;12.93;5.20;;;;;;;26.93;45.75;100761.44;4256241;28;20268;-74
2023/09/09 10:40:14;;;;;;;5.65;4.18;;;;;;;27.25;44.68;100766.47;4281130;28;22241;-74
2023/09/09 10:42:43;;;;;;;9.50;4.82;;;;;;;27.44;44.24;100763.47;4243418;28;20260;-74
2023/09/09 10:45:30;;;;;;;12.02;4.93;;;;;;;27.18;44.88;100765.78;4256617;28;20246;-74
2023/09/09 10:48:01;;;;;;;12.25;5.10;;;;;;;27.56;44.12;100757.81;4227243;28;20304;-73
2023/09/09 10:50:39;;;;;;;8.75;4.13;;;;;;;28.11;43.40;100750.59;4260287;28;20240;-75
2023/09/09 10:53:22;;;;;;;9.93;5.32;;;;;;;27.57;45.06;100760.34;4249927;28;20294;-69
2023/09/09 10:55:55;;;;;;;9.60;5.13;;;;;;;27.02;44.41;100753.53;4235746;28;20842;-72
2023/09/09 10:58:32;;;;;;;10.98;4.85;;;;;;;27.67;43.40;100752.16;4239762;28;21089;-71
2023/09/09 11:01:00;;;;;;;11.40;4.40;;;;;;;28.42;43.36;100743.50;4256251;28;21712;-74
2023/09/09 11:03:51;;;;;;;7.72;4.13;;;;;;;28.08;43.64;100740.00;4257589;28;20228;-72
2023/09/09 11:06:32;;;;;;;11.93;4.68;;;;;;;28.45;42.94;100737.41;4242816;28;20294;-73
2023/09/09 11:09:02;;;;;;;7.32;4.30;;;;;;;28.63;40.41;100733.44;4289828;28;20424;-71
2023/09/09 11:11:37;;;;;;;9.05;3.95;;;;;;;28.65;40.55;100738.75;4269483;28;20386;-73
2023/09/09 11:14:06;;;;;;;9.25;3.83;;;;;;;27.99;41.97;100734.84;4293773;28;20248;-74
2023/09/09 11:16:37;;;;;;;8.43;4.47;;;;;;;28.50;41.63;100741.38;4305080;28;20231;-74
2023/09/09 11:19:18;;;;;;;7.63;4.25;;;;;;;28.46;41.66;100741.03;4282231;28;21345;-73